Greifswald — 3FEC8 — position and weather

sailwx.info

Track history (hours):
 
Tides and Currents Weather Stations Pressure Air Temp Water Temp Dewpoint Dewpoint Depression Visibility Wind Speed Wind Dir Waves Ship Positions

Greifswald

Last reported at 2015-Mar-04 16:08 UTC. Time now 2015-Mar-05 16:09 UTC.
Position N 44°38' E 033°03'.

Length 191 m; draft 6.2 m.

Type: Ship. MMSI: 370492000.

Date/timePositionNaut miles runAvg speedWind from/ knotsBaromVisibWave heightAir tempDewpointWater temp
2015-Mar-04 16:08N 44°38' E 033°03'4812.2
2015-Mar-04 12:10N 44°06' E 033°54'912.7
2015-Mar-04 11:28N 44°03' E 034°05'1213.1
2015-Mar-04 10:34N 43°58' E 034°21'  
2015-Feb-24 17:04N 44°44' E 032°56'711.9
2015-Feb-24 16:31N 44°39' E 033°02'49 8.3
2015-Feb-24 10:33N 44°06' E 033°54'9 7.5
2015-Feb-24 09:24N 44°03' E 034°05'7 7.6
2015-Feb-24 08:26N 43°60' E 034°14'7 7.6
2015-Feb-24 07:33N 43°58' E 034°23'8 6.7
2015-Feb-24 06:24N 43°54' E 034°33'6 7.6
2015-Feb-24 05:33N 43°52' E 034°41'8 8.3
2015-Feb-24 04:33N 43°48' E 034°51'72 7.9
2015-Feb-23 19:22N 43°20' E 036°23'6 7.8
2015-Feb-23 18:32N 43°18' E 036°31'11 7.7
2015-Feb-23 17:09N 43°14' E 036°45'  
Track history (hours):
 
Tides and Currents Weather Stations Pressure Air Temp Water Temp Dewpoint Dewpoint Depression Visibility Wind Speed Wind Dir Waves Ship Positions

Greifswald

Last reported at 2015-Mar-04 16:08 UTC. Time now 2015-Mar-05 16:09 UTC.
Position N 44°38' E 033°03'.

Length 191 m; draft 6.2 m.

Type: Ship. MMSI: 370492000.

Date/timePositionNaut miles runAvg speedWind from/ knotsBaromVisibWave heightAir tempDewpointWater temp
2015-Mar-04 16:08N 44°38' E 033°03'4812.2
2015-Mar-04 12:10N 44°06' E 033°54'912.7
2015-Mar-04 11:28N 44°03' E 034°05'1213.1
2015-Mar-04 10:34N 43°58' E 034°21'  
2015-Feb-24 17:04N 44°44' E 032°56'711.9
2015-Feb-24 16:31N 44°39' E 033°02'49 8.3
2015-Feb-24 10:33N 44°06' E 033°54'9 7.5
2015-Feb-24 09:24N 44°03' E 034°05'7 7.6
2015-Feb-24 08:26N 43°60' E 034°14'7 7.6
2015-Feb-24 07:33N 43°58' E 034°23'8 6.7
2015-Feb-24 06:24N 43°54' E 034°33'6 7.6
2015-Feb-24 05:33N 43°52' E 034°41'8 8.3
2015-Feb-24 04:33N 43°48' E 034°51'72 7.9
2015-Feb-23 19:22N 43°20' E 036°23'6 7.8
2015-Feb-23 18:32N 43°18' E 036°31'11 7.7
2015-Feb-23 17:09N 43°14' E 036°45'  

Dump ship's entire track history